createdAt,value
2018-10-09T08:24:12.167Z,516.00
2018-10-09T08:25:12.200Z,5220.00
2018-10-09T08:26:12.126Z,4412.00
2018-10-09T08:27:12.117Z,5332.00
2018-10-09T08:28:12.117Z,2020.00
2018-10-09T08:29:12.094Z,444.00
2018-10-09T08:30:12.100Z,344.00
2018-10-09T08:31:12.094Z,552.00
2018-10-09T08:32:12.096Z,576.00
2018-10-09T08:33:12.051Z,580.00
2018-10-09T08:34:12.053Z,588.00
2018-10-09T08:35:12.033Z,584.00
2018-10-09T08:36:12.035Z,584.00
2018-10-09T08:37:12.009Z,584.00
2018-10-09T08:38:11.995Z,580.00
2018-10-09T08:39:11.985Z,576.00
2018-10-09T08:40:12.040Z,572.00
2018-10-09T08:41:11.997Z,560.00
2018-10-09T08:42:11.951Z,552.00
2018-10-09T08:43:11.949Z,548.00
2018-10-09T08:44:11.932Z,544.00
2018-10-09T08:45:11.918Z,536.00
2018-10-09T08:46:11.996Z,536.00
2018-10-09T08:47:11.909Z,540.00
2018-10-09T08:48:11.886Z,552.00
2018-10-09T08:49:11.874Z,544.00
2018-10-09T08:50:11.865Z,544.00
2018-10-09T08:51:11.856Z,556.00
2018-10-09T08:52:11.865Z,564.00
2018-10-09T08:53:11.834Z,568.00
2018-10-09T08:54:11.839Z,560.00
2018-10-09T08:55:11.812Z,552.00
2018-10-09T08:56:11.802Z,552.00
2018-10-09T08:57:11.841Z,556.00
2018-10-09T08:58:11.783Z,544.00
2018-10-09T08:59:11.789Z,504.00
2018-10-09T09:00:11.756Z,500.00
2018-10-09T09:01:11.746Z,496.00
2018-10-09T09:02:11.734Z,520.00
2018-10-09T09:03:11.723Z,520.00
2018-10-09T09:04:11.742Z,520.00
2018-10-09T09:05:11.706Z,520.00
2018-10-09T09:06:11.691Z,520.00
2018-10-09T09:08:09.379Z,524.00
2018-10-09T09:09:09.351Z,524.00
2018-10-09T09:10:09.357Z,528.00
2018-10-09T09:11:09.329Z,528.00
2018-10-09T09:12:09.324Z,524.00
2018-10-09T09:13:09.307Z,520.00
2018-10-09T09:14:09.415Z,520.00
2018-10-09T09:15:09.341Z,516.00
2018-10-09T09:16:09.275Z,520.00
2018-10-09T09:17:09.271Z,532.00
2018-10-09T09:18:09.264Z,540.00
2018-10-09T09:19:09.241Z,380.00
2018-10-09T09:20:09.323Z,448.00
2018-10-09T09:21:09.255Z,484.00
2018-10-09T09:22:09.209Z,456.00
2018-10-09T09:23:09.199Z,388.00
2018-10-09T09:24:09.194Z,496.00
2018-10-09T09:25:09.176Z,516.00
2018-10-09T09:26:09.241Z,512.00
2018-10-09T09:27:09.330Z,536.00
2018-10-09T09:28:09.147Z,576.00
2018-10-09T09:29:09.435Z,572.00
2018-10-09T09:30:09.124Z,496.00
2018-10-09T09:31:09.114Z,544.00
2018-10-09T09:32:09.099Z,524.00
2018-10-09T09:33:09.164Z,516.00
2018-10-09T09:34:09.136Z,520.00
2018-10-09T09:35:09.069Z,532.00
2018-10-09T09:36:09.068Z,532.00
2018-10-09T09:37:09.045Z,552.00
2018-10-09T09:38:09.035Z,584.00
2018-10-09T09:39:09.080Z,612.00
2018-10-09T09:40:09.033Z,640.00
2018-10-09T09:41:09.002Z,644.00
2018-10-09T09:42:08.990Z,648.00
2018-10-09T09:43:08.981Z,656.00
2018-10-09T09:44:08.986Z,656.00
2018-10-09T09:45:08.977Z,664.00
2018-10-09T09:46:08.970Z,672.00
2018-10-09T09:47:08.936Z,680.00
2018-10-09T09:48:08.930Z,668.00
2018-10-09T09:49:08.914Z,612.00
2018-10-09T09:50:08.926Z,544.00
2018-10-09T09:51:08.892Z,520.00
2018-10-09T09:52:08.920Z,520.00
2018-10-09T09:53:08.872Z,520.00
2018-10-09T09:54:08.859Z,540.00
2018-10-09T09:55:08.887Z,580.00
2018-10-09T09:56:08.837Z,596.00
2018-10-09T09:57:08.826Z,612.00
2018-10-09T09:58:09.041Z,608.00
2018-10-09T09:59:08.943Z,576.00
2018-10-09T10:00:08.794Z,564.00
2018-10-09T10:01:08.812Z,560.00
2018-10-09T10:02:08.772Z,552.00
2018-10-09T10:03:08.760Z,532.00
2018-10-09T10:04:08.749Z,472.00
2018-10-09T10:05:08.749Z,448.00
2018-10-09T10:06:08.753Z,460.00
2018-10-09T10:07:08.744Z,460.00
2018-10-09T10:08:08.706Z,444.00
2018-10-09T10:09:08.757Z,416.00
2018-10-09T10:10:08.685Z,420.00
2018-10-09T10:11:08.712Z,504.00
2018-10-09T10:12:08.661Z,540.00
2018-10-09T10:13:08.655Z,576.00
2018-10-09T10:14:08.663Z,600.00
2018-10-09T10:15:08.628Z,624.00
2018-10-09T10:16:08.619Z,636.00
2018-10-09T10:17:08.628Z,656.00
2018-10-09T10:18:08.595Z,656.00
2018-10-09T10:19:08.586Z,668.00
2018-10-09T10:20:08.576Z,680.00
2018-10-09T10:21:08.569Z,688.00
2018-10-09T10:22:08.572Z,652.00
2018-10-09T10:23:08.543Z,564.00
2018-10-09T10:24:08.533Z,556.00
2018-10-09T10:25:08.520Z,548.00
2018-10-09T10:26:08.509Z,556.00
2018-10-09T10:27:08.563Z,568.00
2018-10-09T10:28:08.492Z,504.00
2018-10-09T10:29:08.598Z,496.00
2018-10-09T10:30:08.466Z,468.00
2018-10-09T10:31:08.467Z,512.00
2018-10-09T10:32:08.452Z,456.00
2018-10-09T10:33:08.456Z,488.00
2018-10-09T10:34:08.423Z,460.00
2018-10-09T10:35:08.432Z,408.00
2018-10-09T10:36:08.401Z,412.00
2018-10-09T10:37:08.392Z,404.00
2018-10-09T10:38:08.398Z,412.00
2018-10-09T10:39:08.366Z,424.00
2018-10-09T10:40:08.388Z,460.00
2018-10-09T10:41:08.345Z,480.00
2018-10-09T10:42:08.355Z,492.00
2018-10-09T10:43:08.359Z,492.00
2018-10-09T10:44:08.327Z,532.00
2018-10-09T10:45:08.306Z,568.00
2018-10-09T10:46:08.295Z,584.00
2018-10-09T10:47:08.278Z,600.00
2018-10-09T10:48:08.272Z,600.00
2018-10-09T10:49:08.339Z,612.00
2018-10-09T10:50:08.255Z,608.00
2018-10-09T10:51:08.235Z,624.00
2018-10-09T10:52:08.224Z,608.00
2018-10-09T10:53:08.216Z,552.00
2018-10-09T10:54:08.227Z,556.00
2018-10-09T10:55:08.332Z,544.00
2018-10-09T10:56:08.190Z,552.00
2018-10-09T10:57:08.170Z,600.00
2018-10-09T10:58:08.171Z,612.00
2018-10-09T10:59:08.179Z,624.00
2018-10-09T11:00:08.142Z,620.00
2018-10-09T11:01:08.136Z,572.00
2018-10-09T11:02:08.117Z,604.00
2018-10-09T11:03:08.104Z,584.00
2018-10-09T11:04:08.097Z,580.00
2018-10-09T11:05:08.122Z,568.00
2018-10-09T11:06:08.072Z,588.00
2018-10-09T11:07:08.060Z,596.00
2018-10-09T11:08:08.076Z,604.00
2018-10-09T11:09:08.109Z,600.00
2018-10-09T11:10:08.064Z,596.00
2018-10-09T11:11:08.018Z,596.00
2018-10-09T11:12:08.009Z,596.00
2018-10-09T11:13:08.000Z,596.00
2018-10-09T11:14:07.983Z,592.00
2018-10-09T11:15:07.989Z,592.00
2018-10-09T11:16:07.980Z,592.00
2018-10-09T11:17:07.949Z,588.00
2018-10-09T11:18:07.938Z,592.00
2018-10-09T11:19:07.934Z,588.00
2018-10-09T11:20:07.917Z,588.00
2018-10-09T11:21:08.025Z,584.00
2018-10-09T11:22:07.897Z,584.00
2018-10-09T11:23:07.894Z,580.00
2018-10-09T11:24:07.874Z,576.00
2018-10-09T11:25:07.863Z,580.00
2018-10-09T11:26:07.880Z,576.00
2018-10-09T11:27:07.853Z,572.00
2018-10-09T11:28:07.832Z,564.00
2018-10-09T11:29:07.834Z,560.00
2018-10-09T11:30:07.806Z,556.00
2018-10-09T11:31:07.794Z,560.00
2018-10-09T11:32:07.799Z,556.00
2018-10-09T11:33:07.772Z,552.00
2018-10-09T11:34:07.765Z,552.00
2018-10-09T11:35:07.753Z,548.00
2018-10-09T11:36:07.740Z,544.00
2018-10-09T11:37:07.747Z,540.00
2018-10-09T11:38:07.721Z,536.00
2018-10-09T11:39:07.707Z,532.00
2018-10-09T11:40:07.700Z,528.00
2018-10-09T11:41:07.682Z,528.00
2018-10-09T11:42:07.700Z,520.00
2018-10-09T11:43:07.668Z,520.00
2018-10-09T11:44:07.649Z,524.00
2018-10-09T11:45:07.644Z,488.00
2018-10-09T11:46:07.658Z,468.00
2018-10-09T11:47:07.619Z,448.00
2018-10-09T11:48:07.605Z,420.00
2018-10-09T11:49:07.594Z,424.00
2018-10-09T11:50:07.588Z,440.00
2018-10-09T11:51:07.582Z,476.00
2018-10-09T11:52:07.580Z,488.00
2018-10-09T11:53:07.550Z,492.00
2018-10-09T11:54:07.538Z,496.00
2018-10-09T11:55:07.528Z,512.00
2018-10-09T11:56:07.523Z,524.00
2018-10-09T11:57:07.531Z,536.00
2018-10-09T11:58:07.494Z,536.00
2018-10-09T11:59:07.579Z,544.00
2018-10-09T12:00:07.475Z,544.00
2018-10-09T12:01:07.466Z,548.00
2018-10-09T12:02:07.482Z,548.00
2018-10-09T12:03:07.439Z,544.00
2018-10-09T12:04:07.427Z,536.00
2018-10-09T12:05:07.416Z,528.00
2018-10-09T12:06:07.439Z,520.00
2018-10-09T12:07:07.414Z,520.00
2018-10-09T12:08:07.415Z,528.00
2018-10-09T12:09:07.381Z,532.00
2018-10-09T12:10:07.364Z,524.00
2018-10-09T12:11:07.369Z,536.00
2018-10-09T12:12:07.341Z,548.00
2018-10-09T12:13:07.375Z,532.00
2018-10-09T12:14:07.324Z,536.00
2018-10-09T12:15:07.305Z,560.00
2018-10-09T12:16:07.294Z,560.00
2018-10-09T12:17:07.296Z,560.00
2018-10-09T12:18:07.305Z,564.00
2018-10-09T12:19:07.265Z,564.00
2018-10-09T12:20:07.278Z,564.00
2018-10-09T12:21:07.243Z,572.00
2018-10-09T12:22:07.231Z,568.00
2018-10-09T12:23:07.217Z,564.00
2018-10-09T12:24:07.225Z,564.00
2018-10-09T12:25:07.194Z,568.00
2018-10-09T12:26:07.195Z,568.00
2018-10-09T12:27:07.240Z,568.00
2018-10-09T12:28:07.195Z,568.00
2018-10-09T12:29:07.151Z,568.00
2018-10-09T12:30:07.144Z,560.00
2018-10-09T12:31:07.134Z,552.00
2018-10-09T12:32:07.119Z,556.00
2018-10-09T12:33:07.107Z,556.00
2018-10-09T12:34:07.112Z,540.00
2018-10-09T12:35:07.085Z,540.00
2018-10-09T12:36:07.075Z,548.00
2018-10-09T12:37:07.070Z,548.00
2018-10-09T12:38:07.053Z,528.00
2018-10-09T12:39:07.073Z,512.00
2018-10-09T12:40:07.052Z,496.00
2018-10-09T12:41:07.020Z,488.00
2018-10-09T12:42:07.034Z,500.00
2018-10-09T12:43:06.997Z,504.00
2018-10-09T12:44:07.020Z,496.00
2018-10-09T12:45:06.977Z,516.00
2018-10-09T12:46:06.966Z,532.00
2018-10-09T12:47:06.957Z,540.00
2018-10-09T12:48:06.946Z,536.00
2018-10-09T12:49:06.931Z,536.00
2018-10-09T12:50:06.940Z,528.00
2018-10-09T12:51:06.914Z,528.00
2018-10-09T12:52:06.902Z,524.00
2018-10-09T12:53:07.102Z,524.00
2018-10-09T12:54:06.908Z,516.00
2018-10-09T12:55:06.873Z,524.00
2018-10-09T12:56:06.860Z,520.00
2018-10-09T12:57:06.859Z,516.00
2018-10-09T12:58:06.832Z,520.00
2018-10-09T12:59:06.880Z,520.00
2018-10-09T13:00:06.810Z,524.00
2018-10-09T13:01:06.803Z,528.00
2018-10-09T13:02:06.787Z,532.00
2018-10-09T13:03:06.830Z,532.00
2018-10-09T13:04:06.796Z,536.00
2018-10-09T13:05:06.756Z,536.00
2018-10-09T13:06:06.749Z,536.00
2018-10-09T13:07:06.735Z,524.00
2018-10-09T13:08:06.722Z,524.00
2018-10-09T13:09:06.740Z,524.00
2018-10-09T13:10:06.700Z,528.00
2018-10-09T13:11:06.691Z,528.00
2018-10-09T13:12:06.683Z,520.00
2018-10-09T13:13:06.677Z,524.00
2018-10-09T13:14:06.665Z,532.00
2018-10-09T13:15:06.671Z,540.00
2018-10-09T13:16:06.635Z,536.00
2018-10-09T13:17:06.677Z,536.00
2018-10-09T13:18:06.613Z,528.00
2018-10-09T13:19:06.610Z,528.00
2018-10-09T13:20:06.619Z,528.00
2018-10-09T13:21:06.787Z,520.00
2018-10-09T13:22:06.857Z,516.00
2018-10-09T13:23:06.556Z,516.00
2018-10-09T13:24:06.551Z,512.00
2018-10-09T13:25:06.563Z,508.00
2018-10-09T13:26:06.532Z,508.00
2018-10-09T13:27:06.533Z,504.00
2018-10-09T13:28:06.501Z,500.00
2018-10-09T13:29:06.496Z,488.00
2018-10-09T13:30:06.483Z,488.00
2018-10-09T13:31:06.490Z,488.00
2018-10-09T13:32:06.475Z,484.00
2018-10-09T13:33:06.454Z,480.00
2018-10-09T13:34:06.478Z,472.00
2018-10-09T13:35:06.435Z,464.00
2018-10-09T13:36:06.430Z,464.00
2018-10-09T13:37:06.410Z,460.00
2018-10-09T13:38:06.444Z,468.00
2018-10-09T13:39:06.381Z,464.00
2018-10-09T13:40:06.369Z,464.00
2018-10-09T13:41:06.434Z,468.00
2018-10-09T13:42:06.347Z,464.00
2018-10-09T13:43:06.338Z,464.00
2018-10-09T13:44:06.427Z,456.00
2018-10-09T13:45:06.315Z,444.00
2018-10-09T13:46:06.316Z,420.00
2018-10-09T13:47:06.324Z,396.00
2018-10-09T13:48:06.287Z,372.00
2018-10-09T13:49:06.274Z,356.00
2018-10-09T13:50:06.291Z,344.00
2018-10-09T13:51:06.254Z,340.00
2018-10-09T13:52:06.258Z,336.00
2018-10-09T13:53:06.228Z,332.00
2018-10-09T13:54:06.227Z,328.00
2018-10-09T13:55:06.219Z,324.00
2018-10-09T13:56:06.193Z,320.00
2018-10-09T13:57:06.238Z,316.00
2018-10-09T13:58:06.205Z,320.00
2018-10-09T13:59:06.172Z,316.00
2018-10-09T14:00:06.149Z,312.00
2018-10-09T14:01:06.138Z,312.00
2018-10-09T14:02:06.127Z,308.00
2018-10-09T14:03:06.264Z,308.00
2018-10-09T14:04:06.123Z,308.00
2018-10-09T14:05:06.098Z,308.00
2018-10-09T14:06:06.104Z,324.00
2018-10-09T14:07:06.082Z,336.00
2018-10-09T14:08:06.082Z,348.00
2018-10-09T14:09:06.053Z,356.00
2018-10-09T14:10:06.135Z,356.00
2018-10-09T14:11:06.036Z,360.00
2018-10-09T14:12:06.025Z,364.00
2018-10-09T14:13:06.008Z,364.00
2018-10-09T14:14:05.997Z,348.00
2018-10-09T14:15:06.067Z,348.00
2018-10-09T14:16:05.997Z,348.00
2018-10-09T14:17:05.967Z,348.00
2018-10-09T14:18:05.951Z,344.00
2018-10-09T14:19:05.940Z,340.00
2018-10-09T14:20:05.936Z,336.00
2018-10-09T14:21:05.941Z,340.00
2018-10-09T14:22:05.907Z,336.00
2018-10-09T14:23:05.953Z,340.00
2018-10-09T14:24:05.886Z,336.00
2018-10-09T14:25:05.876Z,336.00
2018-10-09T14:26:05.903Z,344.00
2018-10-09T14:27:05.852Z,340.00
2018-10-09T14:28:05.846Z,328.00
2018-10-09T14:29:05.834Z,324.00
2018-10-09T14:30:05.821Z,308.00
2018-10-09T14:31:05.810Z,312.00
2018-10-09T14:32:05.832Z,308.00
2018-10-09T14:33:05.786Z,308.00
2018-10-09T14:34:05.784Z,304.00
2018-10-09T14:35:05.844Z,296.00
2018-10-09T14:36:05.754Z,284.00
2018-10-09T14:37:05.761Z,280.00
2018-10-09T14:38:05.755Z,276.00
2018-10-09T14:39:05.721Z,268.00
2018-10-09T14:40:05.726Z,260.00
2018-10-09T14:41:05.712Z,256.00
2018-10-09T14:42:05.723Z,252.00
2018-10-09T14:43:05.676Z,248.00
2018-10-09T14:44:05.788Z,252.00
2018-10-09T14:45:05.657Z,248.00
2018-10-09T14:46:05.646Z,244.00
2018-10-09T14:47:05.657Z,236.00
2018-10-09T14:48:05.639Z,212.00
2018-10-09T14:49:05.614Z,204.00
2018-10-09T14:50:05.600Z,204.00
2018-10-09T14:51:05.589Z,212.00
2018-10-09T14:52:05.585Z,216.00
2018-10-09T14:53:05.589Z,216.00
2018-10-09T14:54:05.557Z,212.00
2018-10-09T14:55:05.546Z,204.00
2018-10-09T14:56:05.539Z,204.00
2018-10-09T14:57:05.524Z,196.00
2018-10-09T14:58:05.540Z,192.00
2018-10-09T14:59:05.501Z,188.00
2018-10-09T15:00:05.490Z,180.00
2018-10-09T15:01:05.484Z,184.00
2018-10-09T15:02:05.468Z,184.00
2018-10-09T15:03:05.459Z,184.00
2018-10-09T15:04:05.469Z,188.00
2018-10-09T15:05:05.435Z,184.00
2018-10-09T15:06:05.426Z,180.00
2018-10-09T15:07:05.417Z,176.00
2018-10-09T15:08:05.402Z,172.00
2018-10-09T15:09:05.408Z,168.00
2018-10-09T15:10:05.392Z,168.00
2018-10-09T15:11:05.369Z,164.00
2018-10-09T15:12:05.359Z,164.00
2018-10-09T15:13:05.348Z,160.00
2018-10-09T15:14:05.363Z,156.00
2018-10-09T15:15:05.334Z,156.00
2018-10-09T15:16:05.321Z,160.00
2018-10-09T15:17:05.949Z,160.00
2018-10-09T15:18:05.292Z,160.00
2018-10-09T15:19:05.285Z,164.00
2018-10-09T15:20:05.294Z,168.00
2018-10-09T15:21:05.269Z,164.00
2018-10-09T15:22:05.293Z,168.00
2018-10-09T15:23:05.238Z,168.00
2018-10-09T15:24:05.236Z,168.00
2018-10-09T15:25:05.235Z,168.00
2018-10-09T15:26:05.227Z,172.00
2018-10-09T15:27:05.208Z,168.00
2018-10-09T15:28:05.187Z,168.00
2018-10-09T15:29:05.195Z,168.00
2018-10-09T15:30:05.230Z,164.00
2018-10-09T15:31:05.153Z,160.00
2018-10-09T15:32:05.139Z,160.00
2018-10-09T15:33:05.129Z,156.00
2018-10-09T15:34:05.120Z,152.00
2018-10-09T15:35:05.111Z,152.00
2018-10-09T15:36:05.132Z,148.00
2018-10-09T15:37:05.085Z,140.00
2018-10-09T15:38:05.083Z,140.00
2018-10-09T15:39:05.081Z,136.00
2018-10-09T15:40:05.107Z,132.00
2018-10-09T15:41:05.114Z,132.00
2018-10-09T15:42:05.029Z,132.00
2018-10-09T15:43:05.025Z,132.00
2018-10-09T15:44:05.014Z,132.00
2018-10-09T15:45:05.002Z,132.00
2018-10-09T15:46:05.075Z,124.00
2018-10-09T15:47:05.013Z,124.00
2018-10-09T15:48:04.965Z,124.00
2018-10-09T15:49:04.953Z,120.00
2018-10-09T15:50:04.941Z,116.00
2018-10-09T15:51:04.982Z,112.00
2018-10-09T15:52:04.961Z,112.00
2018-10-09T15:53:04.912Z,112.00
2018-10-09T15:54:04.896Z,108.00
2018-10-09T15:55:04.892Z,104.00
2018-10-09T15:56:04.879Z,104.00
2018-10-09T15:57:04.901Z,100.00
2018-10-09T15:58:04.854Z,96.00
2018-10-09T15:59:04.841Z,92.00
2018-10-09T16:00:04.831Z,88.00
2018-10-09T16:01:04.853Z,84.00
2018-10-09T16:02:04.843Z,80.00
2018-10-09T16:03:04.798Z,80.00
2018-10-09T16:04:04.802Z,76.00
2018-10-09T16:05:04.776Z,72.00
2018-10-09T16:06:04.794Z,68.00
2018-10-09T16:07:04.807Z,68.00
2018-10-09T16:08:04.768Z,68.00
2018-10-09T16:09:04.734Z,64.00
2018-10-09T16:10:04.726Z,60.00
2018-10-09T16:11:04.712Z,60.00
2018-10-09T16:12:04.706Z,56.00
2018-10-09T16:13:04.719Z,52.00
2018-10-09T16:14:04.692Z,48.00
2018-10-09T16:15:04.667Z,44.00
2018-10-09T16:16:04.654Z,40.00
2018-10-09T16:17:04.645Z,40.00
2018-10-09T16:18:04.679Z,36.00
2018-10-09T16:19:04.627Z,32.00
2018-10-09T16:20:04.614Z,28.00
2018-10-09T16:21:04.646Z,28.00
2018-10-09T16:22:04.594Z,24.00
2018-10-09T16:23:04.576Z,20.00
2018-10-09T16:24:04.604Z,16.00
2018-10-09T16:25:04.559Z,16.00
2018-10-09T16:26:04.555Z,16.00
2018-10-09T16:27:04.535Z,12.00
2018-10-09T16:28:04.522Z,12.00
2018-10-09T16:29:04.530Z,12.00
2018-10-09T16:30:04.502Z,8.00
2018-10-09T16:31:04.499Z,12.00
2018-10-09T16:32:04.490Z,8.00
2018-10-09T16:33:04.468Z,8.00
2018-10-09T16:34:04.486Z,8.00
2018-10-09T16:35:04.444Z,4.00
2018-10-09T16:36:04.434Z,8.00
2018-10-09T16:37:04.433Z,4.00
2018-10-09T16:38:04.419Z,4.00
2018-10-09T16:39:04.439Z,4.00
2018-10-09T16:40:04.396Z,4.00
2018-10-09T16:41:04.380Z,0.00
2018-10-09T16:42:04.370Z,0.00
2018-10-09T16:43:04.358Z,0.00
2018-10-09T16:44:04.344Z,4.00
2018-10-09T16:45:04.352Z,4.00
2018-10-09T16:46:04.337Z,0.00
2018-10-09T16:47:04.400Z,0.00
2018-10-09T16:48:04.300Z,4.00
2018-10-09T16:49:04.292Z,0.00
2018-10-09T16:50:04.306Z,0.00
2018-10-09T16:51:04.269Z,0.00
2018-10-09T16:52:04.259Z,0.00
2018-10-09T16:53:04.248Z,0.00
2018-10-09T16:54:04.238Z,0.00
2018-10-09T16:55:04.242Z,0.00
2018-10-09T16:56:04.211Z,0.00
2018-10-09T16:57:04.204Z,0.00
2018-10-09T16:58:04.190Z,0.00
2018-10-09T16:59:04.180Z,0.00
2018-10-09T17:00:04.202Z,0.00
2018-10-09T17:01:04.161Z,0.00
2018-10-09T17:02:04.151Z,0.00
2018-10-09T17:03:04.134Z,0.00
2018-10-09T17:04:04.123Z,0.00
2018-10-09T17:05:04.112Z,0.00
2018-10-09T17:06:04.124Z,0.00
2018-10-09T17:07:04.099Z,0.00
2018-10-09T17:08:04.085Z,0.00
2018-10-09T17:09:04.069Z,0.00
2018-10-09T17:10:04.081Z,0.00
2018-10-09T17:11:04.074Z,0.00
2018-10-09T17:12:04.039Z,0.00
2018-10-09T17:13:04.025Z,0.00
2018-10-09T17:14:04.014Z,0.00
2018-10-09T17:15:04.007Z,0.00
2018-10-09T17:16:04.018Z,0.00
2018-10-09T17:17:03.981Z,0.00
2018-10-09T17:18:03.968Z,0.00
2018-10-09T17:19:03.957Z,0.00
2018-10-09T17:20:03.946Z,0.00
2018-10-09T17:21:03.934Z,0.00
2018-10-09T17:22:03.946Z,0.00
2018-10-09T17:23:03.912Z,0.00
2018-10-09T17:24:03.904Z,0.00
2018-10-09T17:25:03.893Z,0.00
2018-10-09T17:26:03.878Z,0.00
2018-10-09T17:27:03.889Z,0.00
2018-10-09T17:28:03.866Z,0.00
2018-10-09T17:29:03.851Z,0.00
2018-10-09T17:30:03.843Z,0.00
2018-10-09T17:31:03.829Z,0.00
2018-10-09T17:32:03.832Z,0.00
2018-10-09T17:33:03.892Z,0.00
2018-10-09T17:34:03.792Z,0.00
2018-10-09T17:35:03.785Z,0.00
2018-10-09T17:36:03.780Z,0.00
2018-10-09T17:37:03.788Z,0.00
2018-10-09T17:38:03.750Z,0.00
2018-10-09T17:39:03.777Z,0.00
2018-10-09T17:40:03.725Z,0.00
2018-10-09T17:41:03.720Z,0.00
2018-10-09T17:42:03.823Z,0.00
2018-10-09T17:43:03.691Z,0.00
2018-10-09T17:44:03.682Z,0.00
2018-10-09T17:45:03.677Z,0.00
2018-10-09T17:46:03.662Z,0.00
2018-10-09T17:47:03.742Z,0.00
2018-10-09T17:48:03.658Z,0.00
2018-10-09T17:49:03.625Z,0.00
2018-10-09T17:50:03.613Z,0.00
2018-10-09T17:51:03.608Z,0.00
2018-10-09T17:52:03.595Z,0.00
2018-10-09T17:53:03.600Z,0.00
2018-10-09T17:54:03.602Z,0.00
2018-10-09T17:55:03.558Z,0.00
2018-10-09T17:56:03.548Z,0.00
2018-10-09T17:57:03.536Z,0.00
2018-10-09T17:58:03.558Z,0.00
2018-10-09T17:59:03.521Z,0.00
2018-10-09T18:00:03.505Z,0.00
2018-10-09T18:01:03.491Z,0.00
2018-10-09T18:02:03.483Z,0.00
2018-10-09T18:03:03.484Z,0.00
2018-10-09T18:04:03.475Z,0.00
2018-10-09T18:05:03.468Z,0.00
2018-10-09T18:06:03.436Z,0.00
2018-10-09T18:07:03.430Z,0.00
2018-10-09T18:08:03.415Z,0.00
2018-10-09T18:09:03.425Z,0.00
2018-10-09T18:10:03.400Z,0.00
2018-10-09T18:11:03.384Z,0.00
2018-10-09T18:12:03.374Z,0.00
2018-10-09T18:13:03.359Z,0.00
2018-10-09T18:14:03.377Z,0.00
2018-10-09T18:15:03.391Z,0.00
2018-10-09T18:16:03.337Z,0.00
2018-10-09T18:17:03.314Z,0.00
2018-10-09T18:18:03.305Z,0.00
2018-10-09T18:19:03.296Z,0.00
2018-10-09T18:20:03.300Z,0.00
2018-10-09T18:21:03.272Z,0.00
2018-10-09T18:22:03.260Z,0.00
2018-10-09T18:23:03.248Z,0.00
2018-10-09T18:24:03.239Z,0.00
2018-10-09T18:25:03.250Z,0.00
2018-10-09T18:26:03.218Z,0.00
2018-10-09T18:27:03.205Z,0.00
2018-10-09T18:28:03.217Z,0.00
2018-10-09T18:29:03.184Z,0.00
2018-10-09T18:30:03.207Z,0.00
2018-10-09T18:31:03.161Z,0.00
2018-10-09T18:32:03.153Z,0.00
2018-10-09T18:33:03.393Z,0.00
2018-10-09T18:34:03.140Z,0.00
2018-10-09T18:35:03.139Z,0.00
2018-10-09T18:36:03.124Z,0.00
2018-10-09T18:37:03.094Z,0.00
2018-10-09T18:38:03.092Z,0.00
2018-10-09T18:39:03.075Z,0.00
2018-10-09T18:40:03.073Z,0.00
2018-10-09T18:41:03.093Z,0.00
2018-10-09T18:42:03.103Z,0.00
2018-10-09T18:43:03.029Z,0.00
2018-10-09T18:44:03.077Z,0.00
2018-10-09T18:45:03.011Z,0.00
2018-10-09T18:46:03.022Z,0.00
2018-10-09T18:47:02.983Z,0.00
2018-10-09T18:48:02.976Z,0.00
2018-10-09T18:49:02.967Z,0.00
2018-10-09T18:50:02.950Z,0.00
2018-10-09T18:51:02.949Z,0.00
2018-10-09T18:52:02.956Z,0.00
2018-10-09T18:53:02.918Z,0.00
2018-10-09T18:54:02.910Z,0.00
2018-10-09T18:55:02.895Z,0.00
2018-10-09T18:56:02.886Z,0.00
2018-10-09T18:57:02.907Z,0.00
2018-10-09T18:58:02.865Z,0.00
2018-10-09T18:59:02.856Z,0.00
2018-10-09T19:00:02.843Z,0.00
2018-10-09T19:01:02.831Z,0.00
2018-10-09T19:02:02.848Z,0.00
2018-10-09T19:03:02.811Z,0.00
2018-10-09T19:04:02.797Z,0.00
2018-10-09T19:05:02.793Z,0.00
2018-10-09T19:06:02.783Z,0.00
2018-10-09T19:07:02.772Z,0.00
2018-10-09T19:08:02.772Z,0.00
2018-10-09T19:09:02.746Z,0.00
2018-10-09T19:10:02.731Z,0.00
2018-10-09T19:11:02.721Z,0.00
2018-10-09T19:12:02.712Z,0.00
2018-10-09T19:13:02.715Z,0.00
2018-10-09T19:14:02.687Z,0.00
2018-10-09T19:15:02.688Z,0.00
2018-10-09T19:16:02.668Z,0.00
2018-10-09T19:17:02.663Z,0.00
2018-10-09T19:18:02.777Z,0.00
2018-10-09T19:19:02.632Z,0.00
2018-10-09T19:20:02.623Z,0.00
2018-10-09T19:21:02.626Z,0.00
2018-10-09T19:22:02.599Z,0.00
2018-10-09T19:23:02.592Z,0.00
2018-10-09T19:24:02.597Z,0.00
2018-10-09T19:25:02.566Z,0.00
2018-10-09T19:26:02.560Z,0.00
2018-10-09T19:27:02.559Z,0.00
2018-10-09T19:28:02.536Z,0.00
2018-10-09T19:29:02.541Z,0.00
2018-10-09T19:30:02.515Z,0.00
2018-10-09T19:31:02.507Z,0.00
2018-10-09T19:32:02.488Z,0.00
2018-10-09T19:33:02.503Z,0.00
2018-10-09T19:34:02.513Z,0.00
2018-10-09T19:35:02.460Z,0.00
2018-10-09T19:36:02.446Z,0.00
2018-10-09T19:37:02.435Z,0.00
2018-10-09T19:38:02.425Z,0.00
2018-10-09T19:39:02.418Z,0.00
2018-10-09T19:40:02.419Z,0.00
2018-10-09T19:41:02.398Z,0.00
2018-10-09T19:42:02.388Z,0.00
2018-10-09T19:43:02.368Z,0.00
2018-10-09T19:44:02.371Z,0.00
2018-10-09T19:45:02.369Z,0.00
2018-10-09T19:46:02.335Z,0.00
2018-10-09T19:47:02.326Z,0.00
2018-10-09T19:48:02.317Z,0.00
2018-10-09T19:49:02.308Z,0.00
2018-10-09T19:50:02.323Z,0.00
2018-10-09T19:51:02.488Z,0.00
2018-10-09T19:52:02.274Z,0.00
2018-10-09T19:53:02.260Z,0.00
2018-10-09T19:54:02.251Z,0.00
2018-10-09T19:55:02.244Z,0.00
2018-10-09T19:56:02.248Z,0.00
2018-10-09T19:57:02.215Z,0.00
2018-10-09T19:58:02.207Z,0.00
2018-10-09T19:59:02.196Z,0.00
2018-10-09T20:00:02.183Z,0.00
2018-10-09T20:01:02.252Z,0.00
2018-10-09T20:02:02.163Z,0.00
2018-10-09T20:03:02.165Z,0.00
2018-10-09T20:04:02.142Z,0.00
2018-10-09T20:05:02.128Z,0.00
2018-10-09T20:06:02.145Z,0.00
2018-10-09T20:07:02.112Z,0.00
2018-10-09T20:08:02.107Z,0.00
2018-10-09T20:09:02.106Z,0.00
2018-10-09T20:10:02.082Z,0.00
2018-10-09T20:11:02.095Z,0.00
2018-10-09T20:12:02.054Z,0.00
2018-10-09T20:13:02.048Z,0.00
2018-10-09T20:14:02.034Z,0.00
2018-10-09T20:15:02.019Z,0.00
2018-10-09T20:16:02.011Z,0.00
2018-10-09T20:17:02.019Z,0.00
2018-10-09T20:18:01.989Z,0.00
2018-10-09T20:19:01.986Z,0.00
2018-10-09T20:20:01.967Z,0.00
2018-10-09T20:21:01.958Z,0.00
2018-10-09T20:22:01.970Z,0.00
2018-10-09T20:23:01.932Z,0.00
2018-10-09T20:24:01.921Z,0.00
2018-10-09T20:25:01.911Z,0.00
2018-10-09T20:26:01.900Z,0.00
2018-10-09T20:27:01.922Z,0.00
2018-10-09T20:28:01.877Z,0.00
2018-10-09T20:29:01.868Z,0.00
2018-10-09T20:30:01.857Z,0.00
2018-10-09T20:31:01.855Z,0.00
2018-10-09T20:32:01.833Z,0.00
2018-10-09T20:33:01.844Z,0.00
2018-10-09T20:34:01.815Z,0.00
2018-10-09T20:35:01.808Z,0.00
2018-10-09T20:36:01.809Z,0.00
2018-10-09T20:37:01.784Z,0.00
2018-10-09T20:38:01.790Z,0.00
2018-10-09T20:39:01.763Z,0.00
2018-10-09T20:40:01.749Z,0.00
2018-10-09T20:41:01.738Z,0.00
2018-10-09T20:42:01.863Z,0.00
2018-10-09T20:43:01.740Z,0.00
2018-10-09T20:44:01.702Z,0.00
2018-10-09T20:45:01.697Z,0.00
2018-10-09T20:46:01.680Z,0.00
2018-10-09T20:47:01.668Z,0.00
2018-10-09T20:48:01.660Z,0.00
2018-10-09T20:49:01.667Z,0.00
2018-10-09T20:50:01.636Z,0.00
2018-10-09T20:51:01.625Z,0.00
2018-10-09T20:52:01.619Z,0.00
2018-10-09T20:53:01.603Z,0.00
2018-10-09T20:54:01.608Z,0.00
2018-10-09T20:55:01.599Z,0.00
2018-10-09T20:56:01.571Z,0.00
2018-10-09T20:57:01.561Z,0.00
2018-10-09T20:58:01.549Z,0.00
2018-10-09T20:59:01.564Z,0.00
2018-10-09T21:00:01.535Z,0.00
2018-10-09T21:01:01.520Z,0.00
2018-10-09T21:02:01.509Z,0.00
2018-10-09T21:03:01.493Z,0.00
2018-10-09T21:04:01.482Z,0.00
2018-10-09T21:05:01.489Z,0.00
2018-10-09T21:06:01.519Z,0.00
2018-10-09T21:07:01.450Z,0.00
2018-10-09T21:08:01.437Z,0.00
2018-10-09T21:09:01.439Z,0.00
2018-10-09T21:10:01.437Z,0.00
2018-10-09T21:11:01.404Z,0.00
2018-10-09T21:12:01.399Z,0.00